sensor_id;sensor_type;location;lat;lon;timestamp;temperature;humidity
56322;DHT22;42227;6.376;-10.782;2023-11-21T00:00:23;26.80;78.70
56322;DHT22;42227;6.376;-10.782;2023-11-21T00:02:51;26.90;99.90
56322;DHT22;42227;6.376;-10.782;2023-11-21T00:05:20;27.10;1.00
56322;DHT22;42227;6.376;-10.782;2023-11-21T00:07:48;27.00;1.00
56322;DHT22;42227;6.376;-10.782;2023-11-21T00:10:17;26.90;1.00
56322;DHT22;42227;6.376;-10.782;2023-11-21T00:12:46;26.80;99.90
56322;DHT22;42227;6.376;-10.782;2023-11-21T00:15:14;26.70;99.90
56322;DHT22;42227;6.376;-10.782;2023-11-21T00:18:36;26.70;99.90
56322;DHT22;42227;6.376;-10.782;2023-11-21T00:21:08;26.70;99.90
56322;DHT22;42227;6.376;-10.782;2023-11-21T00:23:38;26.80;99.90
56322;DHT22;42227;6.376;-10.782;2023-11-21T00:26:07;27.10;99.90
56322;DHT22;42227;6.376;-10.782;2023-11-21T00:28:36;27.20;1.00
56322;DHT22;42227;6.376;-10.782;2023-11-21T00:31:05;27.30;99.90
56322;DHT22;42227;6.376;-10.782;2023-11-21T00:33:33;27.10;6.40
56322;DHT22;42227;6.376;-10.782;2023-11-21T00:36:02;27.00;99.90
56322;DHT22;42227;6.376;-10.782;2023-11-21T00:38:31;26.90;99.90
56322;DHT22;42227;6.376;-10.782;2023-11-21T00:41:00;26.80;99.90
56322;DHT22;42227;6.376;-10.782;2023-11-21T00:43:29;26.80;1.00
56322;DHT22;42227;6.376;-10.782;2023-11-21T00:45:58;27.10;99.90
56322;DHT22;42227;6.376;-10.782;2023-11-21T00:48:26;27.30;1.00
56322;DHT22;42227;6.376;-10.782;2023-11-21T00:50:56;27.20;1.00
56322;DHT22;42227;6.376;-10.782;2023-11-21T00:53:25;26.90;99.90
56322;DHT22;42227;6.376;-10.782;2023-11-21T00:55:53;26.80;1.00
56322;DHT22;42227;6.376;-10.782;2023-11-21T00:58:22;26.60;99.90
56322;DHT22;42227;6.376;-10.782;2023-11-21T01:00:52;26.50;1.00
56322;DHT22;42227;6.376;-10.782;2023-11-21T01:03:21;26.50;99.90
56322;DHT22;42227;6.376;-10.782;2023-11-21T01:05:49;26.70;1.00
56322;DHT22;42227;6.376;-10.782;2023-11-21T01:08:18;26.80;99.90
56322;DHT22;42227;6.376;-10.782;2023-11-21T01:10:46;26.80;51.20
56322;DHT22;42227;6.376;-10.782;2023-11-21T01:13:15;26.60;99.90
56322;DHT22;42227;6.376;-10.782;2023-11-21T01:15:43;26.50;1.00
56322;DHT22;42227;6.376;-10.782;2023-11-21T01:18:13;26.40;1.00
56322;DHT22;42227;6.376;-10.782;2023-11-21T01:20:42;26.30;99.90
56322;DHT22;42227;6.376;-10.782;2023-11-21T01:23:10;26.40;99.90
56322;DHT22;42227;6.376;-10.782;2023-11-21T01:25:39;26.50;99.90
56322;DHT22;42227;6.376;-10.782;2023-11-21T01:28:09;26.50;99.90
56322;DHT22;42227;6.376;-10.782;2023-11-21T01:30:38;26.50;1.00
56322;DHT22;42227;6.376;-10.782;2023-11-21T01:33:07;26.40;1.00
56322;DHT22;42227;6.376;-10.782;2023-11-21T01:35:35;26.30;99.90
56322;DHT22;42227;6.376;-10.782;2023-11-21T01:38:04;26.10;99.90
56322;DHT22;42227;6.376;-10.782;2023-11-21T01:40:32;26.10;1.00
56322;DHT22;42227;6.376;-10.782;2023-11-21T01:43:01;26.20;6.60
56322;DHT22;42227;6.376;-10.782;2023-11-21T01:45:30;26.40;1.00
56322;DHT22;42227;6.376;-10.782;2023-11-21T01:48:00;26.50;99.90
56322;DHT22;42227;6.376;-10.782;2023-11-21T01:50:30;26.60;1.00
56322;DHT22;42227;6.376;-10.782;2023-11-21T01:53:00;26.40;99.90
56322;DHT22;42227;6.376;-10.782;2023-11-21T01:55:29;26.30;1.00
56322;DHT22;42227;6.376;-10.782;2023-11-21T01:57:58;26.20;99.90
56322;DHT22;42227;6.376;-10.782;2023-11-21T02:00:26;26.20;99.90
56322;DHT22;42227;6.376;-10.782;2023-11-21T02:02:55;26.10;99.90
56322;DHT22;42227;6.376;-10.782;2023-11-21T02:05:24;26.30;99.90
56322;DHT22;42227;6.376;-10.782;2023-11-21T02:07:52;26.50;1.00
56322;DHT22;42227;6.376;-10.782;2023-11-21T02:10:21;26.60;99.90
56322;DHT22;42227;6.376;-10.782;2023-11-21T02:12:49;26.40;99.90
56322;DHT22;42227;6.376;-10.782;2023-11-21T02:15:19;26.30;1.00
56322;DHT22;42227;6.376;-10.782;2023-11-21T02:17:48;26.20;87.10
56322;DHT22;42227;6.376;-10.782;2023-11-21T02:20:18;26.10;99.90
56322;DHT22;42227;6.376;-10.782;2023-11-21T02:22:56;26.10;1.00
56322;DHT22;42227;6.376;-10.782;2023-11-21T02:25:31;26.30;99.90
56322;DHT22;42227;6.376;-10.782;2023-11-21T02:28:02;26.60;17.80
56322;DHT22;42227;6.376;-10.782;2023-11-21T02:30:31;26.50;99.90
56322;DHT22;42227;6.376;-10.782;2023-11-21T02:33:01;26.30;1.00
56322;DHT22;42227;6.376;-10.782;2023-11-21T02:35:31;26.10;99.90
56322;DHT22;42227;6.376;-10.782;2023-11-21T02:38:00;26.00;1.00
56322;DHT22;42227;6.376;-10.782;2023-11-21T02:40:29;26.00;1.00
56322;DHT22;42227;6.376;-10.782;2023-11-21T02:42:58;25.90;1.00
56322;DHT22;42227;6.376;-10.782;2023-11-21T02:45:27;26.00;9.40
56322;DHT22;42227;6.376;-10.782;2023-11-21T02:47:56;26.00;1.00
56322;DHT22;42227;6.376;-10.782;2023-11-21T02:50:26;26.10;1.00
56322;DHT22;42227;6.376;-10.782;2023-11-21T02:52:55;26.00;1.00
56322;DHT22;42227;6.376;-10.782;2023-11-21T02:55:24;25.90;1.00
56322;DHT22;42227;6.376;-10.782;2023-11-21T02:57:53;25.90;1.00
56322;DHT22;42227;6.376;-10.782;2023-11-21T03:00:22;25.90;1.00
56322;DHT22;42227;6.376;-10.782;2023-11-21T03:02:51;26.00;97.40
56322;DHT22;42227;6.376;-10.782;2023-11-21T03:05:19;26.00;1.00
56322;DHT22;42227;6.376;-10.782;2023-11-21T03:07:48;26.20;1.00
56322;DHT22;42227;6.376;-10.782;2023-11-21T03:10:17;26.10;99.90
56322;DHT22;42227;6.376;-10.782;2023-11-21T03:12:45;26.00;99.90
56322;DHT22;42227;6.376;-10.782;2023-11-21T03:15:14;25.90;1.00
56322;DHT22;42227;6.376;-10.782;2023-11-21T03:17:43;25.90;23.20
56322;DHT22;42227;6.376;-10.782;2023-11-21T03:20:11;25.80;58.70
56322;DHT22;42227;6.376;-10.782;2023-11-21T03:22:40;25.70;99.90
56322;DHT22;42227;6.376;-10.782;2023-11-21T03:25:08;25.90;99.90
56322;DHT22;42227;6.376;-10.782;2023-11-21T03:27:37;26.10;95.20
56322;DHT22;42227;6.376;-10.782;2023-11-21T03:30:07;26.20;1.00
56322;DHT22;42227;6.376;-10.782;2023-11-21T03:32:37;26.10;99.90
56322;DHT22;42227;6.376;-10.782;2023-11-21T03:35:06;25.90;1.00
56322;DHT22;42227;6.376;-10.782;2023-11-21T03:37:34;25.80;27.30
56322;DHT22;42227;6.376;-10.782;2023-11-21T03:40:03;25.80;96.60
56322;DHT22;42227;6.376;-10.782;2023-11-21T03:42:32;25.80;99.90
56322;DHT22;42227;6.376;-10.782;2023-11-21T03:45:01;25.90;99.90
56322;DHT22;42227;6.376;-10.782;2023-11-21T03:47:30;25.90;98.70
56322;DHT22;42227;6.376;-10.782;2023-11-21T03:49:58;26.10;93.70
56322;DHT22;42227;6.376;-10.782;2023-11-21T03:52:27;26.00;1.00
56322;DHT22;42227;6.376;-10.782;2023-11-21T03:54:56;25.90;1.00
56322;DHT22;42227;6.376;-10.782;2023-11-21T03:57:24;25.90;7.40
56322;DHT22;42227;6.376;-10.782;2023-11-21T03:59:53;25.80;89.50
56322;DHT22;42227;6.376;-10.782;2023-11-21T04:02:21;25.70;99.90
56322;DHT22;42227;6.376;-10.782;2023-11-21T04:04:50;25.80;99.90
56322;DHT22;42227;6.376;-10.782;2023-11-21T04:07:18;25.90;99.90
56322;DHT22;42227;6.376;-10.782;2023-11-21T04:09:47;26.10;14.50
56322;DHT22;42227;6.376;-10.782;2023-11-21T04:12:15;26.10;99.90
56322;DHT22;42227;6.376;-10.782;2023-11-21T04:14:44;26.00;99.90
56322;DHT22;42227;6.376;-10.782;2023-11-21T04:17:12;25.80;1.00
56322;DHT22;42227;6.376;-10.782;2023-11-21T04:19:42;25.80;27.90
56322;DHT22;42227;6.376;-10.782;2023-11-21T04:22:11;25.70;99.90
56322;DHT22;42227;6.376;-10.782;2023-11-21T04:24:40;25.70;99.90
56322;DHT22;42227;6.376;-10.782;2023-11-21T04:27:08;25.90;99.90
56322;DHT22;42227;6.376;-10.782;2023-11-21T04:29:37;26.00;84.80
56322;DHT22;42227;6.376;-10.782;2023-11-21T04:32:05;25.90;20.90
56322;DHT22;42227;6.376;-10.782;2023-11-21T04:34:34;25.80;48.90
56322;DHT22;42227;6.376;-10.782;2023-11-21T04:37:02;25.80;99.90
56322;DHT22;42227;6.376;-10.782;2023-11-21T04:39:31;25.80;99.90
56322;DHT22;42227;6.376;-10.782;2023-11-21T04:41:59;25.80;99.90
56322;DHT22;42227;6.376;-10.782;2023-11-21T04:44:28;25.80;99.90
56322;DHT22;42227;6.376;-10.782;2023-11-21T04:46:57;26.20;10.80
56322;DHT22;42227;6.376;-10.782;2023-11-21T04:49:25;26.40;44.50
56322;DHT22;42227;6.376;-10.782;2023-11-21T04:51:53;26.50;99.90
56322;DHT22;42227;6.376;-10.782;2023-11-21T04:54:22;26.10;1.00
56322;DHT22;42227;6.376;-10.782;2023-11-21T04:56:55;26.00;99.90
56322;DHT22;42227;6.376;-10.782;2023-11-21T04:59:23;25.90;99.90
56322;DHT22;42227;6.376;-10.782;2023-11-21T05:01:52;26.00;99.90
56322;DHT22;42227;6.376;-10.782;2023-11-21T05:04:21;25.90;1.00
56322;DHT22;42227;6.376;-10.782;2023-11-21T05:06:49;26.10;1.00
56322;DHT22;42227;6.376;-10.782;2023-11-21T05:09:18;26.30;85.50
56322;DHT22;42227;6.376;-10.782;2023-11-21T05:11:46;26.40;99.90
56322;DHT22;42227;6.376;-10.782;2023-11-21T05:14:15;26.20;99.90
56322;DHT22;42227;6.376;-10.782;2023-11-21T05:16:43;26.10;1.00
56322;DHT22;42227;6.376;-10.782;2023-11-21T05:19:12;26.00;99.90
56322;DHT22;42227;6.376;-10.782;2023-11-21T05:21:41;25.90;99.90
56322;DHT22;42227;6.376;-10.782;2023-11-21T05:24:09;25.90;99.90
56322;DHT22;42227;6.376;-10.782;2023-11-21T05:26:38;26.10;99.90
56322;DHT22;42227;6.376;-10.782;2023-11-21T05:29:06;26.20;1.00
56322;DHT22;42227;6.376;-10.782;2023-11-21T05:31:34;26.30;1.00
56322;DHT22;42227;6.376;-10.782;2023-11-21T05:34:03;26.20;99.90
56322;DHT22;42227;6.376;-10.782;2023-11-21T05:36:32;26.10;99.90
56322;DHT22;42227;6.376;-10.782;2023-11-21T05:39:00;26.00;1.00
56322;DHT22;42227;6.376;-10.782;2023-11-21T05:41:29;25.90;1.00
56322;DHT22;42227;6.376;-10.782;2023-11-21T05:43:57;25.90;46.40
56322;DHT22;42227;6.376;-10.782;2023-11-21T05:46:26;26.00;99.90
56322;DHT22;42227;6.376;-10.782;2023-11-21T05:48:55;26.20;99.90
56322;DHT22;42227;6.376;-10.782;2023-11-21T05:51:23;26.40;99.90
56322;DHT22;42227;6.376;-10.782;2023-11-21T05:53:51;26.40;1.00
56322;DHT22;42227;6.376;-10.782;2023-11-21T05:56:20;26.20;1.00
56322;DHT22;42227;6.376;-10.782;2023-11-21T05:58:48;26.00;99.90
56322;DHT22;42227;6.376;-10.782;2023-11-21T06:01:17;26.00;99.90
56322;DHT22;42227;6.376;-10.782;2023-11-21T06:03:45;25.80;1.00
56322;DHT22;42227;6.376;-10.782;2023-11-21T06:06:14;25.80;99.90
56322;DHT22;42227;6.376;-10.782;2023-11-21T06:08:42;25.80;99.90
56322;DHT22;42227;6.376;-10.782;2023-11-21T06:11:11;25.90;99.90
56322;DHT22;42227;6.376;-10.782;2023-11-21T06:13:39;26.20;99.90
56322;DHT22;42227;6.376;-10.782;2023-11-21T06:16:08;26.00;99.90
56322;DHT22;42227;6.376;-10.782;2023-11-21T06:18:37;25.90;99.90
56322;DHT22;42227;6.376;-10.782;2023-11-21T06:21:06;25.80;1.00
56322;DHT22;42227;6.376;-10.782;2023-11-21T06:23:37;25.70;99.90
56322;DHT22;42227;6.376;-10.782;2023-11-21T06:26:06;25.70;97.10
56322;DHT22;42227;6.376;-10.782;2023-11-21T06:28:34;25.80;99.90
56322;DHT22;42227;6.376;-10.782;2023-11-21T06:31:03;26.10;1.00
56322;DHT22;42227;6.376;-10.782;2023-11-21T06:33:32;26.20;99.90
56322;DHT22;42227;6.376;-10.782;2023-11-21T06:36:01;26.00;99.90
56322;DHT22;42227;6.376;-10.782;2023-11-21T06:38:29;25.90;99.90
56322;DHT22;42227;6.376;-10.782;2023-11-21T06:40:58;25.90;99.90
56322;DHT22;42227;6.376;-10.782;2023-11-21T06:43:26;25.90;1.00
56322;DHT22;42227;6.376;-10.782;2023-11-21T06:45:55;25.90;1.00
56322;DHT22;42227;6.376;-10.782;2023-11-21T06:48:23;25.90;1.00
56322;DHT22;42227;6.376;-10.782;2023-11-21T06:50:52;26.20;99.90
56322;DHT22;42227;6.376;-10.782;2023-11-21T06:53:20;26.50;1.00
56322;DHT22;42227;6.376;-10.782;2023-11-21T06:55:52;26.70;99.90
56322;DHT22;42227;6.376;-10.782;2023-11-21T06:58:21;26.50;99.90
56322;DHT22;42227;6.376;-10.782;2023-11-21T07:00:49;26.40;99.90
56322;DHT22;42227;6.376;-10.782;2023-11-21T07:03:21;26.40;99.90
56322;DHT22;42227;6.376;-10.782;2023-11-21T07:05:50;26.60;99.90
56322;DHT22;42227;6.376;-10.782;2023-11-21T07:08:19;26.80;99.90
56322;DHT22;42227;6.376;-10.782;2023-11-21T07:10:47;27.40;1.00
56322;DHT22;42227;6.376;-10.782;2023-11-21T07:13:15;27.70;99.90
56322;DHT22;42227;6.376;-10.782;2023-11-21T07:15:45;27.80;99.90
56322;DHT22;42227;6.376;-10.782;2023-11-21T07:18:18;27.60;99.90
56322;DHT22;42227;6.376;-10.782;2023-11-21T07:20:46;27.70;99.90
56322;DHT22;42227;6.376;-10.782;2023-11-21T07:23:15;27.90;91.00
56322;DHT22;42227;6.376;-10.782;2023-11-21T07:25:44;28.00;7.70
56322;DHT22;42227;6.376;-10.782;2023-11-21T07:28:12;28.90;1.00
56322;DHT22;42227;6.376;-10.782;2023-11-21T07:30:40;29.80;99.90
56322;DHT22;42227;6.376;-10.782;2023-11-21T07:33:09;30.10;43.50
56322;DHT22;42227;6.376;-10.782;2023-11-21T07:35:38;29.90;27.10
56322;DHT22;42227;6.376;-10.782;2023-11-21T07:38:06;29.40;93.20
56322;DHT22;42227;6.376;-10.782;2023-11-21T07:40:35;29.30;99.90
56322;DHT22;42227;6.376;-10.782;2023-11-21T07:43:03;29.80;47.80
56322;DHT22;42227;6.376;-10.782;2023-11-21T07:45:32;30.80;1.00
56322;DHT22;42227;6.376;-10.782;2023-11-21T07:48:01;31.40;1.00
56322;DHT22;42227;6.376;-10.782;2023-11-21T07:50:29;32.10;99.90
56322;DHT22;42227;6.376;-10.782;2023-11-21T07:52:58;32.10;99.90
56322;DHT22;42227;6.376;-10.782;2023-11-21T07:55:26;33.00;99.90
56322;DHT22;42227;6.376;-10.782;2023-11-21T07:57:55;35.10;99.90
56322;DHT22;42227;6.376;-10.782;2023-11-21T08:00:23;36.60;57.80
56322;DHT22;42227;6.376;-10.782;2023-11-21T08:02:52;37.30;24.90
56322;DHT22;42227;6.376;-10.782;2023-11-21T08:05:20;37.90;9.70
56322;DHT22;42227;6.376;-10.782;2023-11-21T08:07:59;38.60;1.00
56322;DHT22;42227;6.376;-10.782;2023-11-21T08:10:27;39.10;1.00
56322;DHT22;42227;6.376;-10.782;2023-11-21T08:12:56;39.60;1.00
56322;DHT22;42227;6.376;-10.782;2023-11-21T08:15:24;39.50;1.00
56322;DHT22;42227;6.376;-10.782;2023-11-21T08:17:53;39.90;1.00
56322;DHT22;42227;6.376;-10.782;2023-11-21T08:20:30;40.40;1.00
56322;DHT22;42227;6.376;-10.782;2023-11-21T08:22:58;40.60;1.00
56322;DHT22;42227;6.376;-10.782;2023-11-21T08:25:27;40.80;1.00
56322;DHT22;42227;6.376;-10.782;2023-11-21T08:27:55;41.00;1.00
56322;DHT22;42227;6.376;-10.782;2023-11-21T08:30:23;41.30;1.00
56322;DHT22;42227;6.376;-10.782;2023-11-21T08:32:52;41.80;1.00
56322;DHT22;42227;6.376;-10.782;2023-11-21T08:35:20;42.00;1.00
56322;DHT22;42227;6.376;-10.782;2023-11-21T08:37:51;41.90;1.00
56322;DHT22;42227;6.376;-10.782;2023-11-21T08:40:20;41.80;1.00
56322;DHT22;42227;6.376;-10.782;2023-11-21T08:42:49;42.10;1.00
56322;DHT22;42227;6.376;-10.782;2023-11-21T08:45:18;42.00;1.00
56322;DHT22;42227;6.376;-10.782;2023-11-21T08:47:46;41.40;1.00
56322;DHT22;42227;6.376;-10.782;2023-11-21T08:50:15;40.90;1.00
56322;DHT22;42227;6.376;-10.782;2023-11-21T08:52:44;40.60;1.00
56322;DHT22;42227;6.376;-10.782;2023-11-21T08:57:04;37.00;7.00
56322;DHT22;42227;6.376;-10.782;2023-11-21T08:59:33;35.90;35.50
56322;DHT22;42227;6.376;-10.782;2023-11-21T09:02:01;35.10;96.00
56322;DHT22;42227;6.376;-10.782;2023-11-21T09:04:33;34.90;99.90
56322;DHT22;42227;6.376;-10.782;2023-11-21T09:07:02;34.90;99.90
56322;DHT22;42227;6.376;-10.782;2023-11-21T09:09:32;34.20;99.90
56322;DHT22;42227;6.376;-10.782;2023-11-21T09:12:00;34.30;99.90
56322;DHT22;42227;6.376;-10.782;2023-11-21T09:14:29;34.20;99.90
56322;DHT22;42227;6.376;-10.782;2023-11-21T09:16:57;33.90;99.90
56322;DHT22;42227;6.376;-10.782;2023-11-21T09:19:26;33.80;99.90
56322;DHT22;42227;6.376;-10.782;2023-11-21T09:21:54;33.60;99.90
56322;DHT22;42227;6.376;-10.782;2023-11-21T09:24:23;33.30;99.90
56322;DHT22;42227;6.376;-10.782;2023-11-21T09:26:51;33.50;99.90
56322;DHT22;42227;6.376;-10.782;2023-11-21T09:29:19;33.60;99.90
56322;DHT22;42227;6.376;-10.782;2023-11-21T09:31:48;33.50;99.90
56322;DHT22;42227;6.376;-10.782;2023-11-21T09:34:17;33.60;99.90
56322;DHT22;42227;6.376;-10.782;2023-11-21T09:36:45;32.90;99.90
56322;DHT22;42227;6.376;-10.782;2023-11-21T09:39:14;32.70;99.90
56322;DHT22;42227;6.376;-10.782;2023-11-21T09:44:57;32.60;99.90
56322;DHT22;42227;6.376;-10.782;2023-11-21T09:47:28;31.90;99.90
56322;DHT22;42227;6.376;-10.782;2023-11-21T09:49:59;32.10;99.90
56322;DHT22;42227;6.376;-10.782;2023-11-21T09:52:30;32.10;99.90
56322;DHT22;42227;6.376;-10.782;2023-11-21T09:55:00;32.70;99.90
56322;DHT22;42227;6.376;-10.782;2023-11-21T09:57:30;32.60;99.90
56322;DHT22;42227;6.376;-10.782;2023-11-21T10:00:01;32.70;99.90
56322;DHT22;42227;6.376;-10.782;2023-11-21T10:02:33;32.60;99.90
56322;DHT22;42227;6.376;-10.782;2023-11-21T10:05:02;32.50;99.90
56322;DHT22;42227;6.376;-10.782;2023-11-21T10:07:32;32.70;99.90
56322;DHT22;42227;6.376;-10.782;2023-11-21T10:10:02;32.70;99.90
56322;DHT22;42227;6.376;-10.782;2023-11-21T10:12:32;33.00;99.90
56322;DHT22;42227;6.376;-10.782;2023-11-21T10:15:03;33.00;99.90
56322;DHT22;42227;6.376;-10.782;2023-11-21T10:17:35;32.70;99.90
56322;DHT22;42227;6.376;-10.782;2023-11-21T10:20:04;32.80;99.90
56322;DHT22;42227;6.376;-10.782;2023-11-21T10:22:33;33.10;99.90
56322;DHT22;42227;6.376;-10.782;2023-11-21T10:25:01;32.80;99.90
56322;DHT22;42227;6.376;-10.782;2023-11-21T10:27:30;32.60;99.90
56322;DHT22;42227;6.376;-10.782;2023-11-21T10:30:00;32.80;99.90
56322;DHT22;42227;6.376;-10.782;2023-11-21T10:32:30;32.70;99.90
56322;DHT22;42227;6.376;-10.782;2023-11-21T10:34:59;32.60;99.90
56322;DHT22;42227;6.376;-10.782;2023-11-21T10:37:28;32.70;99.90
56322;DHT22;42227;6.376;-10.782;2023-11-21T10:39:59;32.80;99.90
56322;DHT22;42227;6.376;-10.782;2023-11-21T10:42:28;32.50;99.90
56322;DHT22;42227;6.376;-10.782;2023-11-21T10:44:56;32.40;99.90
56322;DHT22;42227;6.376;-10.782;2023-11-21T10:47:25;32.70;99.90
56322;DHT22;42227;6.376;-10.782;2023-11-21T10:49:54;32.60;99.90
56322;DHT22;42227;6.376;-10.782;2023-11-21T10:52:27;32.90;99.90
56322;DHT22;42227;6.376;-10.782;2023-11-21T10:54:56;32.60;99.90
56322;DHT22;42227;6.376;-10.782;2023-11-21T10:57:34;32.60;99.90
56322;DHT22;42227;6.376;-10.782;2023-11-21T11:00:02;32.30;99.90
56322;DHT22;42227;6.376;-10.782;2023-11-21T11:02:31;32.20;99.90
56322;DHT22;42227;6.376;-10.782;2023-11-21T11:05:00;32.60;99.90
56322;DHT22;42227;6.376;-10.782;2023-11-21T11:07:30;32.80;99.90
56322;DHT22;42227;6.376;-10.782;2023-11-21T11:09:59;32.90;99.90
56322;DHT22;42227;6.376;-10.782;2023-11-21T11:12:28;33.10;99.90
56322;DHT22;42227;6.376;-10.782;2023-11-21T11:14:56;33.70;99.90
56322;DHT22;42227;6.376;-10.782;2023-11-21T11:17:26;33.70;99.90
56322;DHT22;42227;6.376;-10.782;2023-11-21T11:19:55;33.40;99.90
56322;DHT22;42227;6.376;-10.782;2023-11-21T11:22:35;33.30;99.90
56322;DHT22;42227;6.376;-10.782;2023-11-21T11:25:21;33.10;99.90
56322;DHT22;42227;6.376;-10.782;2023-11-21T11:27:57;33.10;99.90
56322;DHT22;42227;6.376;-10.782;2023-11-21T11:30:47;33.10;99.90
56322;DHT22;42227;6.376;-10.782;2023-11-21T11:33:31;33.20;99.90
56322;DHT22;42227;6.376;-10.782;2023-11-21T11:36:36;33.30;99.90
56322;DHT22;42227;6.376;-10.782;2023-11-21T11:39:31;32.70;99.90
56322;DHT22;42227;6.376;-10.782;2023-11-21T11:42:06;33.00;99.90
56322;DHT22;42227;6.376;-10.782;2023-11-21T11:47:28;32.70;99.90
56322;DHT22;42227;6.376;-10.782;2023-11-21T11:50:04;32.30;99.90
56322;DHT22;42227;6.376;-10.782;2023-11-21T11:52:34;32.60;99.90
56322;DHT22;42227;6.376;-10.782;2023-11-21T11:55:04;32.90;99.90
56322;DHT22;42227;6.376;-10.782;2023-11-21T11:57:34;33.00;99.90
56322;DHT22;42227;6.376;-10.782;2023-11-21T12:00:17;32.90;99.90
56322;DHT22;42227;6.376;-10.782;2023-11-21T12:02:48;33.00;99.90
56322;DHT22;42227;6.376;-10.782;2023-11-21T12:05:18;33.10;99.90
56322;DHT22;42227;6.376;-10.782;2023-11-21T12:07:54;33.10;99.90
56322;DHT22;42227;6.376;-10.782;2023-11-21T12:10:27;33.00;99.90
56322;DHT22;42227;6.376;-10.782;2023-11-21T12:12:58;32.90;99.90
56322;DHT22;42227;6.376;-10.782;2023-11-21T12:15:27;33.10;99.90
56322;DHT22;42227;6.376;-10.782;2023-11-21T12:17:55;33.10;99.90
56322;DHT22;42227;6.376;-10.782;2023-11-21T12:20:25;32.60;99.90
56322;DHT22;42227;6.376;-10.782;2023-11-21T12:22:54;32.80;99.90
56322;DHT22;42227;6.376;-10.782;2023-11-21T12:25:28;32.90;99.90
56322;DHT22;42227;6.376;-10.782;2023-11-21T12:27:57;32.70;99.90
56322;DHT22;42227;6.376;-10.782;2023-11-21T12:30:28;32.50;99.90
56322;DHT22;42227;6.376;-10.782;2023-11-21T12:32:59;32.50;99.90
56322;DHT22;42227;6.376;-10.782;2023-11-21T12:35:31;32.80;99.90
56322;DHT22;42227;6.376;-10.782;2023-11-21T12:38:00;33.10;99.90
56322;DHT22;42227;6.376;-10.782;2023-11-21T12:40:28;33.10;99.90
56322;DHT22;42227;6.376;-10.782;2023-11-21T12:42:58;33.10;99.90
56322;DHT22;42227;6.376;-10.782;2023-11-21T12:45:28;33.10;99.90
56322;DHT22;42227;6.376;-10.782;2023-11-21T12:47:59;32.90;99.90
56322;DHT22;42227;6.376;-10.782;2023-11-21T12:50:29;32.60;99.90
56322;DHT22;42227;6.376;-10.782;2023-11-21T12:53:09;32.60;99.90
56322;DHT22;42227;6.376;-10.782;2023-11-21T12:55:38;32.80;99.90
56322;DHT22;42227;6.376;-10.782;2023-11-21T12:58:09;33.10;99.90
56322;DHT22;42227;6.376;-10.782;2023-11-21T13:00:42;33.20;99.90
56322;DHT22;42227;6.376;-10.782;2023-11-21T13:03:13;33.30;99.90
56322;DHT22;42227;6.376;-10.782;2023-11-21T13:05:42;33.30;99.90
56322;DHT22;42227;6.376;-10.782;2023-11-21T13:08:13;33.10;99.90
56322;DHT22;42227;6.376;-10.782;2023-11-21T13:10:44;33.00;99.90
56322;DHT22;42227;6.376;-10.782;2023-11-21T13:13:13;32.90;99.90
56322;DHT22;42227;6.376;-10.782;2023-11-21T13:15:57;32.90;99.90
56322;DHT22;42227;6.376;-10.782;2023-11-21T13:18:27;33.00;99.90
56322;DHT22;42227;6.376;-10.782;2023-11-21T13:20:58;32.60;99.90
56322;DHT22;42227;6.376;-10.782;2023-11-21T13:23:27;32.50;99.90
56322;DHT22;42227;6.376;-10.782;2023-11-21T13:25:56;32.70;99.90
56322;DHT22;42227;6.376;-10.782;2023-11-21T13:28:34;32.60;99.90
56322;DHT22;42227;6.376;-10.782;2023-11-21T13:31:04;32.30;99.90
56322;DHT22;42227;6.376;-10.782;2023-11-21T13:33:33;32.20;99.90
56322;DHT22;42227;6.376;-10.782;2023-11-21T13:36:02;32.20;99.90
56322;DHT22;42227;6.376;-10.782;2023-11-21T13:38:30;32.40;99.90
56322;DHT22;42227;6.376;-10.782;2023-11-21T13:40:59;32.70;99.90
56322;DHT22;42227;6.376;-10.782;2023-11-21T13:43:28;32.60;99.90
56322;DHT22;42227;6.376;-10.782;2023-11-21T13:45:56;32.70;99.90
56322;DHT22;42227;6.376;-10.782;2023-11-21T13:48:25;32.40;99.90
56322;DHT22;42227;6.376;-10.782;2023-11-21T13:50:54;32.70;99.90
56322;DHT22;42227;6.376;-10.782;2023-11-21T13:53:22;32.60;99.90
56322;DHT22;42227;6.376;-10.782;2023-11-21T13:55:54;32.60;99.90
56322;DHT22;42227;6.376;-10.782;2023-11-21T13:58:23;32.50;99.90
56322;DHT22;42227;6.376;-10.782;2023-11-21T14:00:51;32.50;99.90
56322;DHT22;42227;6.376;-10.782;2023-11-21T14:03:20;32.70;99.90
56322;DHT22;42227;6.376;-10.782;2023-11-21T14:05:49;32.90;99.90
56322;DHT22;42227;6.376;-10.782;2023-11-21T14:08:19;32.40;99.90
56322;DHT22;42227;6.376;-10.782;2023-11-21T14:11:57;32.50;99.90
56322;DHT22;42227;6.376;-10.782;2023-11-21T14:14:27;32.20;99.90
56322;DHT22;42227;6.376;-10.782;2023-11-21T14:16:56;32.10;99.90
56322;DHT22;42227;6.376;-10.782;2023-11-21T14:19:24;32.10;99.90
56322;DHT22;42227;6.376;-10.782;2023-11-21T16:55:08;31.20;99.90
56322;DHT22;42227;6.376;-10.782;2023-11-21T16:57:37;31.20;99.90
56322;DHT22;42227;6.376;-10.782;2023-11-21T17:00:06;31.10;99.90
56322;DHT22;42227;6.376;-10.782;2023-11-21T17:02:34;31.10;99.90
56322;DHT22;42227;6.376;-10.782;2023-11-21T17:05:03;31.20;99.90
56322;DHT22;42227;6.376;-10.782;2023-11-21T17:07:32;31.10;99.90
56322;DHT22;42227;6.376;-10.782;2023-11-21T17:10:00;30.90;99.90
56322;DHT22;42227;6.376;-10.782;2023-11-21T17:12:29;31.00;99.90
56322;DHT22;42227;6.376;-10.782;2023-11-21T17:14:57;31.00;99.90
56322;DHT22;42227;6.376;-10.782;2023-11-21T17:17:25;30.80;99.90
56322;DHT22;42227;6.376;-10.782;2023-11-21T17:19:54;30.90;99.90
56322;DHT22;42227;6.376;-10.782;2023-11-21T17:22:22;30.70;99.90
56322;DHT22;42227;6.376;-10.782;2023-11-21T17:24:51;30.70;99.90
56322;DHT22;42227;6.376;-10.782;2023-11-21T17:27:20;30.60;99.90
56322;DHT22;42227;6.376;-10.782;2023-11-21T17:29:48;30.60;99.90
56322;DHT22;42227;6.376;-10.782;2023-11-21T17:32:19;30.60;99.90
56322;DHT22;42227;6.376;-10.782;2023-11-21T17:34:47;30.50;99.90
56322;DHT22;42227;6.376;-10.782;2023-11-21T17:37:16;30.50;99.90
56322;DHT22;42227;6.376;-10.782;2023-11-21T17:39:45;30.40;99.90
56322;DHT22;42227;6.376;-10.782;2023-11-21T17:42:13;30.20;99.90
56322;DHT22;42227;6.376;-10.782;2023-11-21T17:44:42;30.10;99.90
56322;DHT22;42227;6.376;-10.782;2023-11-21T17:47:10;30.00;99.90
56322;DHT22;42227;6.376;-10.782;2023-11-21T17:49:39;30.00;99.90
56322;DHT22;42227;6.376;-10.782;2023-11-21T17:52:07;30.00;99.90
56322;DHT22;42227;6.376;-10.782;2023-11-21T17:54:36;30.10;99.90
56322;DHT22;42227;6.376;-10.782;2023-11-21T17:57:05;30.20;99.90
56322;DHT22;42227;6.376;-10.782;2023-11-21T17:59:33;30.10;99.90
56322;DHT22;42227;6.376;-10.782;2023-11-21T18:02:02;30.10;99.90
56322;DHT22;42227;6.376;-10.782;2023-11-21T18:04:31;30.10;99.90
56322;DHT22;42227;6.376;-10.782;2023-11-21T18:06:59;30.20;99.90
56322;DHT22;42227;6.376;-10.782;2023-11-21T18:09:28;30.00;99.90
56322;DHT22;42227;6.376;-10.782;2023-11-21T18:11:56;30.00;99.90
56322;DHT22;42227;6.376;-10.782;2023-11-21T18:14:24;30.00;99.90
56322;DHT22;42227;6.376;-10.782;2023-11-21T18:16:56;30.00;99.90